sensor_id;sensor_type;location;lat;lon;timestamp;pressure;altitude;pressure_sealevel;temperature;humidity
75775;BME280;64505;51.458;7.556;2023-05-10T00:00:54;98959.44;;;13.24;95.76
75775;BME280;64505;51.458;7.556;2023-05-10T00:02:55;98954.13;;;13.24;95.30
75775;BME280;64505;51.458;7.556;2023-05-10T00:04:57;98944.59;;;13.23;96.14
75775;BME280;64505;51.458;7.556;2023-05-10T00:06:59;98948.56;;;13.26;95.16
75775;BME280;64505;51.458;7.556;2023-05-10T00:09:01;98946.44;;;13.23;95.62
75775;BME280;64505;51.458;7.556;2023-05-10T00:11:02;98945.09;;;13.25;95.73
75775;BME280;64505;51.458;7.556;2023-05-10T00:13:04;98943.50;;;13.24;95.70
75775;BME280;64505;51.458;7.556;2023-05-10T00:15:06;98943.75;;;13.18;95.72
75775;BME280;64505;51.458;7.556;2023-05-10T00:17:08;98951.19;;;13.21;96.13
75775;BME280;64505;51.458;7.556;2023-05-10T00:19:10;98949.09;;;13.23;96.25
75775;BME280;64505;51.458;7.556;2023-05-10T00:21:11;98946.97;;;13.20;95.87
75775;BME280;64505;51.458;7.556;2023-05-10T00:23:13;98943.47;;;13.14;96.24
75775;BME280;64505;51.458;7.556;2023-05-10T00:25:15;98946.97;;;13.20;95.88
75775;BME280;64505;51.458;7.556;2023-05-10T00:27:16;98948.81;;;13.19;95.63
75775;BME280;64505;51.458;7.556;2023-05-10T00:29:18;98948.78;;;13.14;96.35
75775;BME280;64505;51.458;7.556;2023-05-10T00:31:20;98942.88;;;13.07;96.26
75775;BME280;64505;51.458;7.556;2023-05-10T00:33:22;98945.06;;;13.15;95.76
75775;BME280;64505;51.458;7.556;2023-05-10T00:35:24;98941.66;;;13.20;95.37
75775;BME280;64505;51.458;7.556;2023-05-10T00:37:25;98949.84;;;13.18;95.71
75775;BME280;64505;51.458;7.556;2023-05-10T00:39:27;98943.47;;;13.14;95.79
75775;BME280;64505;51.458;7.556;2023-05-10T00:41:30;98946.09;;;13.09;95.57
75775;BME280;64505;51.458;7.556;2023-05-10T00:43:33;98944.22;;;13.10;95.17
75775;BME280;64505;51.458;7.556;2023-05-10T00:45:35;98938.88;;;13.05;95.63
75775;BME280;64505;51.458;7.556;2023-05-10T00:47:39;98951.88;;;13.06;96.02
75775;BME280;64505;51.458;7.556;2023-05-10T00:49:41;98945.28;;;13.09;95.03
75775;BME280;64505;51.458;7.556;2023-05-10T00:51:43;98942.06;;;13.07;95.74
75775;BME280;64505;51.458;7.556;2023-05-10T00:53:46;98945.78;;;13.06;95.84
75775;BME280;64505;51.458;7.556;2023-05-10T00:55:48;98942.28;;;13.00;95.46
75775;BME280;64505;51.458;7.556;2023-05-10T00:57:53;98944.13;;;12.95;95.91
75775;BME280;64505;51.458;7.556;2023-05-10T00:59:55;98951.56;;;12.98;96.47
75775;BME280;64505;51.458;7.556;2023-05-10T01:01:57;98948.41;;;13.01;96.27
75775;BME280;64505;51.458;7.556;2023-05-10T01:03:59;98943.91;;;13.01;95.92
75775;BME280;64505;51.458;7.556;2023-05-10T01:06:01;98946.28;;;13.03;95.95
75775;BME280;64505;51.458;7.556;2023-05-10T01:08:03;98953.72;;;13.01;96.13
75775;BME280;64505;51.458;7.556;2023-05-10T01:10:08;98947.31;;;12.97;95.92
75775;BME280;64505;51.458;7.556;2023-05-10T01:12:10;98949.22;;;13.01;96.23
75775;BME280;64505;51.458;7.556;2023-05-10T01:14:13;98954.75;;;13.00;96.07
75775;BME280;64505;51.458;7.556;2023-05-10T01:16:14;98947.84;;;12.99;95.85
75775;BME280;64505;51.458;7.556;2023-05-10T01:18:19;98953.44;;;13.02;95.98
75775;BME280;64505;51.458;7.556;2023-05-10T01:20:22;98957.13;;;12.96;96.14
75775;BME280;64505;51.458;7.556;2023-05-10T01:31:26;98961.38;;;12.97;96.09
75775;BME280;64505;51.458;7.556;2023-05-10T01:34:09;98954.75;;;12.95;96.51
75775;BME280;64505;51.458;7.556;2023-05-10T01:36:16;98954.22;;;12.98;96.24
75775;BME280;64505;51.458;7.556;2023-05-10T01:38:32;98960.75;;;12.85;96.82
75775;BME280;64505;51.458;7.556;2023-05-10T01:40:40;98961.34;;;12.92;96.65
75775;BME280;64505;51.458;7.556;2023-05-10T01:42:51;98962.16;;;12.93;96.56
75775;BME280;64505;51.458;7.556;2023-05-10T01:44:58;98964.56;;;12.94;96.81
75775;BME280;64505;51.458;7.556;2023-05-10T01:49:16;98963.47;;;12.95;96.32
75775;BME280;64505;51.458;7.556;2023-05-10T01:51:24;98967.44;;;12.93;96.43
75775;BME280;64505;51.458;7.556;2023-05-10T01:53:27;98967.75;;;12.96;96.13
75775;BME280;64505;51.458;7.556;2023-05-10T01:55:32;98966.94;;;12.96;96.20
75775;BME280;64505;51.458;7.556;2023-05-10T01:57:37;98970.91;;;12.93;96.37
75775;BME280;64505;51.458;7.556;2023-05-10T01:59:43;98973.03;;;12.96;96.11
75775;BME280;64505;51.458;7.556;2023-05-10T02:01:47;98970.16;;;12.98;96.39
75775;BME280;64505;51.458;7.556;2023-05-10T02:03:50;98966.13;;;12.95;96.66
75775;BME280;64505;51.458;7.556;2023-05-10T02:05:54;98969.31;;;12.92;96.93
75775;BME280;64505;51.458;7.556;2023-05-10T02:07:57;98968.47;;;12.87;97.01
75775;BME280;64505;51.458;7.556;2023-05-10T02:10:00;98972.19;;;12.86;96.23
75775;BME280;64505;51.458;7.556;2023-05-10T02:12:05;98970.63;;;12.90;96.48
75775;BME280;64505;51.458;7.556;2023-05-10T02:14:09;98973.81;;;12.92;96.53
75775;BME280;64505;51.458;7.556;2023-05-10T02:16:12;98969.81;;;12.89;97.07
75775;BME280;64505;51.458;7.556;2023-05-10T02:18:16;98977.25;;;12.92;97.52
75775;BME280;64505;51.458;7.556;2023-05-10T02:20:18;98972.47;;;12.89;96.73
75775;BME280;64505;51.458;7.556;2023-05-10T02:22:21;98978.50;;;12.79;96.95
75775;BME280;64505;51.458;7.556;2023-05-10T02:24:24;98978.06;;;12.88;96.90
75775;BME280;64505;51.458;7.556;2023-05-10T02:26:26;98979.69;;;12.94;96.75
75775;BME280;64505;51.458;7.556;2023-05-10T02:28:29;98985.22;;;12.87;95.93
75775;BME280;64505;51.458;7.556;2023-05-10T02:30:33;98982.28;;;12.89;96.41
75775;BME280;64505;51.458;7.556;2023-05-10T02:32:36;98979.38;;;12.90;97.17
75775;BME280;64505;51.458;7.556;2023-05-10T02:34:39;98983.06;;;12.84;96.53
75775;BME280;64505;51.458;7.556;2023-05-10T02:36:42;98989.44;;;12.88;96.15
75775;BME280;64505;51.458;7.556;2023-05-10T02:38:45;98986.00;;;12.88;95.99
75775;BME280;64505;51.458;7.556;2023-05-10T02:40:47;98992.31;;;12.81;95.30
75775;BME280;64505;51.458;7.556;2023-05-10T02:42:51;98992.81;;;12.78;96.15
75775;BME280;64505;51.458;7.556;2023-05-10T02:45:00;98991.44;;;12.71;95.65
75775;BME280;64505;51.458;7.556;2023-05-10T02:47:02;98996.28;;;12.79;95.65
75775;BME280;64505;51.458;7.556;2023-05-10T02:49:04;98992.53;;;12.75;96.03
75775;BME280;64505;51.458;7.556;2023-05-10T02:51:07;99002.06;;;12.71;95.08
75775;BME280;64505;51.458;7.556;2023-05-10T02:53:11;99002.56;;;12.68;95.61
75775;BME280;64505;51.458;7.556;2023-05-10T02:55:16;99007.56;;;12.64;95.02
75775;BME280;64505;51.458;7.556;2023-05-10T02:57:25;99000.38;;;12.60;94.72
75775;BME280;64505;51.458;7.556;2023-05-10T02:59:27;99000.94;;;12.67;94.76
75775;BME280;64505;51.458;7.556;2023-05-10T03:01:29;99009.34;;;12.54;94.57
75775;BME280;64505;51.458;7.556;2023-05-10T03:03:30;99002.78;;;12.61;94.27
75775;BME280;64505;51.458;7.556;2023-05-10T03:05:32;99004.56;;;12.56;95.11
75775;BME280;64505;51.458;7.556;2023-05-10T03:07:34;99006.91;;;12.47;94.73
75775;BME280;64505;51.458;7.556;2023-05-10T03:09:36;99001.31;;;12.49;94.71
75775;BME280;64505;51.458;7.556;2023-05-10T03:11:55;99007.66;;;12.43;94.83
75775;BME280;64505;51.458;7.556;2023-05-10T03:14:24;99007.44;;;12.49;95.55
75775;BME280;64505;51.458;7.556;2023-05-10T03:16:44;99005.00;;;12.43;95.04
75775;BME280;64505;51.458;7.556;2023-05-10T03:18:56;99006.09;;;12.47;94.32
75775;BME280;64505;51.458;7.556;2023-05-10T03:21:03;99016.91;;;12.40;94.85
75775;BME280;64505;51.458;7.556;2023-05-10T03:25:21;99017.22;;;12.44;94.76
75775;BME280;64505;51.458;7.556;2023-05-10T03:27:26;99011.91;;;12.44;95.25
75775;BME280;64505;51.458;7.556;2023-05-10T03:29:29;99025.31;;;12.32;95.27
75775;BME280;64505;51.458;7.556;2023-05-10T03:31:32;99028.03;;;12.37;95.60
75775;BME280;64505;51.458;7.556;2023-05-10T03:33:34;99028.50;;;12.34;95.88
75775;BME280;64505;51.458;7.556;2023-05-10T03:35:36;99027.47;;;12.35;95.01
75775;BME280;64505;51.458;7.556;2023-05-10T03:37:37;99029.88;;;12.37;95.81
75775;BME280;64505;51.458;7.556;2023-05-10T03:39:39;99033.00;;;12.33;95.04
75775;BME280;64505;51.458;7.556;2023-05-10T03:41:41;99027.41;;;12.30;95.19
75775;BME280;64505;51.458;7.556;2023-05-10T03:43:42;99027.09;;;12.26;95.23
75775;BME280;64505;51.458;7.556;2023-05-10T03:45:44;99029.00;;;12.31;95.24
75775;BME280;64505;51.458;7.556;2023-05-10T03:47:45;99030.00;;;12.25;95.82
75775;BME280;64505;51.458;7.556;2023-05-10T03:49:47;99036.66;;;12.27;95.35
75775;BME280;64505;51.458;7.556;2023-05-10T03:51:49;99034.56;;;12.29;95.40
75775;BME280;64505;51.458;7.556;2023-05-10T03:53:50;99040.91;;;12.28;95.23
75775;BME280;64505;51.458;7.556;2023-05-10T03:55:52;99041.22;;;12.32;95.80
75775;BME280;64505;51.458;7.556;2023-05-10T03:57:54;99042.81;;;12.33;96.00
75775;BME280;64505;51.458;7.556;2023-05-10T03:59:55;99042.53;;;12.29;95.90
75775;BME280;64505;51.458;7.556;2023-05-10T04:01:57;99042.25;;;12.31;95.86
75775;BME280;64505;51.458;7.556;2023-05-10T04:03:58;99039.91;;;12.34;95.59
75775;BME280;64505;51.458;7.556;2023-05-10T04:06:01;99051.56;;;12.33;96.40
75775;BME280;64505;51.458;7.556;2023-05-10T04:08:09;99046.25;;;12.33;96.56
75775;BME280;64505;51.458;7.556;2023-05-10T04:10:11;99052.34;;;12.34;95.83
75775;BME280;64505;51.458;7.556;2023-05-10T04:12:13;99051.56;;;12.33;96.47
75775;BME280;64505;51.458;7.556;2023-05-10T04:14:14;99053.97;;;12.35;96.00
75775;BME280;64505;51.458;7.556;2023-05-10T04:16:16;99051.09;;;12.37;96.61
75775;BME280;64505;51.458;7.556;2023-05-10T04:18:18;99057.19;;;12.37;96.03
75775;BME280;64505;51.458;7.556;2023-05-10T04:20:19;99051.09;;;12.37;96.35
75775;BME280;64505;51.458;7.556;2023-05-10T04:22:21;99049.78;;;12.39;97.29
75775;BME280;64505;51.458;7.556;2023-05-10T04:24:23;99044.72;;;12.38;96.31
75775;BME280;64505;51.458;7.556;2023-05-10T04:26:24;99053.47;;;12.38;96.70
75775;BME280;64505;51.458;7.556;2023-05-10T04:28:26;99045.78;;;12.37;96.68
75775;BME280;64505;51.458;7.556;2023-05-10T04:30:28;99051.63;;;12.39;96.01
75775;BME280;64505;51.458;7.556;2023-05-10T04:32:30;99045.00;;;12.41;96.55
75775;BME280;64505;51.458;7.556;2023-05-10T04:34:32;99043.16;;;12.42;96.72
75775;BME280;64505;51.458;7.556;2023-05-10T04:36:35;99048.47;;;12.42;96.74
75775;BME280;64505;51.458;7.556;2023-05-10T04:38:38;99050.06;;;12.43;96.21
75775;BME280;64505;51.458;7.556;2023-05-10T04:40:39;99050.06;;;12.43;95.76
75775;BME280;64505;51.458;7.556;2023-05-10T04:42:41;99060.97;;;12.46;96.70
75775;BME280;64505;51.458;7.556;2023-05-10T04:44:42;99055.44;;;12.48;96.33
75775;BME280;64505;51.458;7.556;2023-05-10T04:46:45;99055.16;;;12.49;96.77
75775;BME280;64505;51.458;7.556;2023-05-10T04:48:47;99062.88;;;12.51;96.48
75775;BME280;64505;51.458;7.556;2023-05-10T04:50:49;99061.81;;;12.52;96.85
75775;BME280;64505;51.458;7.556;2023-05-10T04:52:50;99066.88;;;12.53;95.79
75775;BME280;64505;51.458;7.556;2023-05-10T04:54:53;99070.06;;;12.55;96.69
75775;BME280;64505;51.458;7.556;2023-05-10T04:56:55;99070.56;;;12.52;97.19
75775;BME280;64505;51.458;7.556;2023-05-10T04:58:56;99072.19;;;12.53;97.04
75775;BME280;64505;51.458;7.556;2023-05-10T05:01:05;99075.38;;;12.55;96.79
75775;BME280;64505;51.458;7.556;2023-05-10T05:03:06;99072.41;;;12.52;96.17
75775;BME280;64505;51.458;7.556;2023-05-10T05:05:08;99078.28;;;12.54;97.40
75775;BME280;64505;51.458;7.556;2023-05-10T05:07:10;99074.03;;;12.53;96.32
75775;BME280;64505;51.458;7.556;2023-05-10T05:09:12;99078.53;;;12.52;95.68
75775;BME280;64505;51.458;7.556;2023-05-10T05:11:13;99081.38;;;12.46;95.99
75775;BME280;64505;51.458;7.556;2023-05-10T05:13:15;99096.59;;;12.55;96.53
75775;BME280;64505;51.458;7.556;2023-05-10T05:15:17;99087.78;;;12.50;95.85
75775;BME280;64505;51.458;7.556;2023-05-10T05:17:18;99091.56;;;12.54;96.20
75775;BME280;64505;51.458;7.556;2023-05-10T05:19:20;99091.34;;;12.60;95.90
75775;BME280;64505;51.458;7.556;2023-05-10T05:21:22;99095.31;;;12.58;96.11
75775;BME280;64505;51.458;7.556;2023-05-10T05:23:23;99092.09;;;12.56;95.69
75775;BME280;64505;51.458;7.556;2023-05-10T05:25:26;99095.31;;;12.58;95.79
75775;BME280;64505;51.458;7.556;2023-05-10T05:27:27;99092.44;;;12.64;95.80
75775;BME280;64505;51.458;7.556;2023-05-10T05:29:29;99090.09;;;12.68;96.15
75775;BME280;64505;51.458;7.556;2023-05-10T05:31:31;99097.84;;;12.74;96.07
75775;BME280;64505;51.458;7.556;2023-05-10T05:33:33;99098.13;;;12.73;96.02
75775;BME280;64505;51.458;7.556;2023-05-10T05:35:35;99106.91;;;12.78;96.33
75775;BME280;64505;51.458;7.556;2023-05-10T05:37:36;99107.72;;;12.79;95.84
75775;BME280;64505;51.458;7.556;2023-05-10T05:39:38;99106.06;;;12.73;96.15
75775;BME280;64505;51.458;7.556;2023-05-10T05:41:40;99105.06;;;12.79;96.63
75775;BME280;64505;51.458;7.556;2023-05-10T05:43:41;99101.38;;;12.85;95.77
75775;BME280;64505;51.458;7.556;2023-05-10T05:45:43;99105.88;;;12.79;96.16
75775;BME280;64505;51.458;7.556;2023-05-10T05:47:44;99109.66;;;12.89;96.09
75775;BME280;64505;51.458;7.556;2023-05-10T05:49:46;99112.56;;;12.87;96.38
75775;BME280;64505;51.458;7.556;2023-05-10T05:51:48;99101.97;;;12.92;96.59
75775;BME280;64505;51.458;7.556;2023-05-10T05:53:51;99104.94;;;12.96;96.78
75775;BME280;64505;51.458;7.556;2023-05-10T05:55:57;99099.69;;;13.01;96.38
75775;BME280;64505;51.458;7.556;2023-05-10T05:57:59;99105.53;;;13.03;96.43
75775;BME280;64505;51.458;7.556;2023-05-10T06:00:00;99100.50;;;13.06;96.10
75775;BME280;64505;51.458;7.556;2023-05-10T06:02:02;99101.63;;;13.10;95.45
75775;BME280;64505;51.458;7.556;2023-05-10T06:04:04;99107.75;;;13.11;95.48
75775;BME280;64505;51.458;7.556;2023-05-10T06:06:05;99110.34;;;13.06;95.65
75775;BME280;64505;51.458;7.556;2023-05-10T06:08:07;99113.31;;;13.09;95.42
75775;BME280;64505;51.458;7.556;2023-05-10T06:10:09;99118.72;;;13.19;95.24
75775;BME280;64505;51.458;7.556;2023-05-10T06:12:11;99121.69;;;13.28;94.80
75775;BME280;64505;51.458;7.556;2023-05-10T06:14:13;99127.56;;;13.30;94.23
75775;BME280;64505;51.458;7.556;2023-05-10T06:16:14;99137.59;;;13.23;94.77
75775;BME280;64505;51.458;7.556;2023-05-10T06:18:16;99142.59;;;13.19;94.59
75775;BME280;64505;51.458;7.556;2023-05-10T06:20:17;99137.81;;;13.21;95.09
75775;BME280;64505;51.458;7.556;2023-05-10T06:22:19;99140.84;;;13.30;94.55
75775;BME280;64505;51.458;7.556;2023-05-10T06:24:21;99135.81;;;13.34;94.69
75775;BME280;64505;51.458;7.556;2023-05-10T06:26:23;99134.28;;;13.43;94.57
75775;BME280;64505;51.458;7.556;2023-05-10T06:28:24;99135.31;;;13.37;95.59
75775;BME280;64505;51.458;7.556;2023-05-10T06:30:26;99136.63;;;13.39;95.40
75775;BME280;64505;51.458;7.556;2023-05-10T06:32:30;99141.38;;;13.32;94.28
75775;BME280;64505;51.458;7.556;2023-05-10T06:34:32;99151.31;;;13.47;94.87
75775;BME280;64505;51.458;7.556;2023-05-10T06:36:34;99149.50;;;13.52;93.94
75775;BME280;64505;51.458;7.556;2023-05-10T06:38:35;99149.78;;;13.56;92.75
75775;BME280;64505;51.458;7.556;2023-05-10T06:40:41;99145.63;;;13.75;93.42
75775;BME280;64505;51.458;7.556;2023-05-10T06:42:42;99147.31;;;13.86;94.07
75775;BME280;64505;51.458;7.556;2023-05-10T06:44:46;99139.34;;;13.86;94.84
75775;BME280;64505;51.458;7.556;2023-05-10T06:46:47;99143.84;;;13.86;95.06
75775;BME280;64505;51.458;7.556;2023-05-10T06:48:49;99140.91;;;13.82;92.95
75775;BME280;64505;51.458;7.556;2023-05-10T06:50:51;99150.19;;;13.79;93.28
75775;BME280;64505;51.458;7.556;2023-05-10T06:52:52;99156.03;;;13.76;93.12
75775;BME280;64505;51.458;7.556;2023-05-10T06:54:54;99155.56;;;13.85;93.70
75775;BME280;64505;51.458;7.556;2023-05-10T06:56:56;99156.03;;;13.76;93.88
75775;BME280;64505;51.458;7.556;2023-05-10T06:58:57;99159.50;;;13.82;94.08
75775;BME280;64505;51.458;7.556;2023-05-10T07:01:05;99167.13;;;13.68;93.08
75775;BME280;64505;51.458;7.556;2023-05-10T07:03:07;99163.66;;;13.68;91.77
75775;BME280;64505;51.458;7.556;2023-05-10T07:05:08;99167.41;;;13.72;92.72
75775;BME280;64505;51.458;7.556;2023-05-10T07:07:10;99165.09;;;13.80;92.54
75775;BME280;64505;51.458;7.556;2023-05-10T07:09:12;99172.59;;;13.89;92.44
75775;BME280;64505;51.458;7.556;2023-05-10T07:11:14;99164.09;;;13.92;91.33
75775;BME280;64505;51.458;7.556;2023-05-10T07:13:16;99173.50;;;14.14;91.61
75775;BME280;64505;51.458;7.556;2023-05-10T07:15:18;99169.22;;;14.08;90.11
75775;BME280;64505;51.458;7.556;2023-05-10T07:17:20;99181.31;;;14.31;90.13
75775;BME280;64505;51.458;7.556;2023-05-10T07:19:21;99177.09;;;14.40;90.92
75775;BME280;64505;51.458;7.556;2023-05-10T07:21:23;99179.44;;;14.32;91.23
75775;BME280;64505;51.458;7.556;2023-05-10T07:23:30;99174.44;;;14.40;90.66
75775;BME280;64505;51.458;7.556;2023-05-10T07:25:31;99175.28;;;14.46;90.46
75775;BME280;64505;51.458;7.556;2023-05-10T07:27:33;99176.69;;;14.73;90.00
75775;BME280;64505;51.458;7.556;2023-05-10T07:29:35;99177.16;;;14.55;87.26
75775;BME280;64505;51.458;7.556;2023-05-10T07:31:37;99177.44;;;14.54;88.35
75775;BME280;64505;51.458;7.556;2023-05-10T07:33:39;99172.69;;;14.71;89.71
75775;BME280;64505;51.458;7.556;2023-05-10T07:35:41;99171.16;;;14.90;89.81
75775;BME280;64505;51.458;7.556;2023-05-10T07:37:43;99169.56;;;15.04;88.40
75775;BME280;64505;51.458;7.556;2023-05-10T07:39:45;99165.84;;;15.10;88.43
75775;BME280;64505;51.458;7.556;2023-05-10T07:41:46;99172.47;;;14.98;90.48
75775;BME280;64505;51.458;7.556;2023-05-10T07:43:48;99177.78;;;14.83;88.68
75775;BME280;64505;51.458;7.556;2023-05-10T07:45:49;99168.47;;;14.75;87.89
75775;BME280;64505;51.458;7.556;2023-05-10T07:47:53;99172.47;;;14.88;87.11
75775;BME280;64505;51.458;7.556;2023-05-10T07:49:54;99170.59;;;14.83;86.37
75775;BME280;64505;51.458;7.556;2023-05-10T07:51:56;99177.56;;;15.09;88.00
75775;BME280;64505;51.458;7.556;2023-05-10T07:53:58;99177.31;;;15.36;88.08
75775;BME280;64505;51.458;7.556;2023-05-10T07:56:25;99183.44;;;15.32;86.33
75775;BME280;64505;51.458;7.556;2023-05-10T07:58:33;99181.03;;;15.25;86.37
75775;BME280;64505;51.458;7.556;2023-05-10T08:00:35;99181.28;;;15.23;86.70
75775;BME280;64505;51.458;7.556;2023-05-10T08:02:40;99180.00;;;15.26;83.00
75775;BME280;64505;51.458;7.556;2023-05-10T08:04:42;99182.13;;;15.64;84.15
75775;BME280;64505;51.458;7.556;2023-05-10T08:06:44;99176.78;;;15.64;82.59
75775;BME280;64505;51.458;7.556;2023-05-10T08:08:46;99180.53;;;15.58;81.52
75775;BME280;64505;51.458;7.556;2023-05-10T08:10:50;99188.75;;;15.92;81.99
75775;BME280;64505;51.458;7.556;2023-05-10T08:12:52;99182.91;;;15.90;82.48
75775;BME280;64505;51.458;7.556;2023-05-10T08:14:53;99194.63;;;15.89;84.14
75775;BME280;64505;51.458;7.556;2023-05-10T08:16:55;99188.78;;;15.87;83.71
75775;BME280;64505;51.458;7.556;2023-05-10T08:18:57;99190.88;;;15.90;83.85
75775;BME280;64505;51.458;7.556;2023-05-10T08:20:59;99196.16;;;16.10;84.25
75775;BME280;64505;51.458;7.556;2023-05-10T08:23:00;99198.28;;;16.13;82.01
75775;BME280;64505;51.458;7.556;2023-05-10T08:25:02;99198.06;;;16.05;81.49
75775;BME280;64505;51.458;7.556;2023-05-10T08:27:07;99205.25;;;16.04;83.45
75775;BME280;64505;51.458;7.556;2023-05-10T08:29:09;99195.41;;;15.90;84.30
75775;BME280;64505;51.458;7.556;2023-05-10T08:31:11;99201.00;;;15.98;83.24
75775;BME280;64505;51.458;7.556;2023-05-10T08:33:13;99203.63;;;16.13;82.98
75775;BME280;64505;51.458;7.556;2023-05-10T08:35:15;99208.44;;;16.16;82.64
75775;BME280;64505;51.458;7.556;2023-05-10T08:37:17;99212.66;;;16.38;80.43
75775;BME280;64505;51.458;7.556;2023-05-10T08:39:19;99217.22;;;16.17;79.55
75775;BME280;64505;51.458;7.556;2023-05-10T08:41:33;99221.28;;;16.79;80.46
75775;BME280;64505;51.458;7.556;2023-05-10T08:43:38;99219.53;;;16.49;81.56
75775;BME280;64505;51.458;7.556;2023-05-10T08:45:44;99217.69;;;16.39;80.31
75775;BME280;64505;51.458;7.556;2023-05-10T08:47:49;99218.78;;;16.38;81.19
75775;BME280;64505;51.458;7.556;2023-05-10T08:49:51;99219.09;;;16.27;81.82
75775;BME280;64505;51.458;7.556;2023-05-10T08:51:55;99226.19;;;16.51;78.69
75775;BME280;64505;51.458;7.556;2023-05-10T08:53:57;99229.59;;;16.77;78.54
75775;BME280;64505;51.458;7.556;2023-05-10T08:56:00;99231.16;;;17.27;77.38
75775;BME280;64505;51.458;7.556;2023-05-10T08:58:03;99235.94;;;17.30;76.60
75775;BME280;64505;51.458;7.556;2023-05-10T09:00:05;99236.00;;;17.25;76.39
75775;BME280;64505;51.458;7.556;2023-05-10T09:02:09;99233.97;;;17.07;76.05
75775;BME280;64505;51.458;7.556;2023-05-10T09:04:12;99236.25;;;17.29;77.29
75775;BME280;64505;51.458;7.556;2023-05-10T09:06:14;99231.91;;;16.94;76.99
75775;BME280;64505;51.458;7.556;2023-05-10T09:08:17;99235.72;;;16.78;77.37
75775;BME280;64505;51.458;7.556;2023-05-10T09:10:19;99234.50;;;17.09;76.75
75775;BME280;64505;51.458;7.556;2023-05-10T09:12:22;99228.53;;;17.22;76.94
75775;BME280;64505;51.458;7.556;2023-05-10T09:14:24;99246.06;;;16.94;76.18
75775;BME280;64505;51.458;7.556;2023-05-10T09:16:26;99243.97;;;17.30;76.81
75775;BME280;64505;51.458;7.556;2023-05-10T09:18:28;99251.56;;;17.13;75.90
75775;BME280;64505;51.458;7.556;2023-05-10T09:20:30;99252.47;;;17.37;75.47
75775;BME280;64505;51.458;7.556;2023-05-10T09:22:35;99239.00;;;17.57;74.38
75775;BME280;64505;51.458;7.556;2023-05-10T09:24:37;99243.56;;;17.57;73.71
75775;BME280;64505;51.458;7.556;2023-05-10T09:26:47;99242.66;;;17.66;73.56
75775;BME280;64505;51.458;7.556;2023-05-10T09:28:57;99245.66;;;17.21;73.33
75775;BME280;64505;51.458;7.556;2023-05-10T09:30:59;99242.59;;;16.94;73.93
75775;BME280;64505;51.458;7.556;2023-05-10T09:33:01;99242.94;;;17.26;73.61
75775;BME280;64505;51.458;7.556;2023-05-10T09:35:29;99248.81;;;17.23;74.00
75775;BME280;64505;51.458;7.556;2023-05-10T09:37:31;99239.59;;;17.44;73.94
75775;BME280;64505;51.458;7.556;2023-05-10T09:39:34;99248.97;;;17.42;72.56
75775;BME280;64505;51.458;7.556;2023-05-10T09:41:36;99257.22;;;17.50;72.49
75775;BME280;64505;51.458;7.556;2023-05-10T09:43:38;99250.06;;;17.80;73.58
75775;BME280;64505;51.458;7.556;2023-05-10T09:45:41;99259.84;;;18.18;71.48
75775;BME280;64505;51.458;7.556;2023-05-10T09:47:42;99250.00;;;18.13;69.82
75775;BME280;64505;51.458;7.556;2023-05-10T09:49:49;99245.53;;;18.56;69.06
75775;BME280;64505;51.458;7.556;2023-05-10T09:52:07;99255.25;;;18.47;68.99
75775;BME280;64505;51.458;7.556;2023-05-10T09:54:14;99260.19;;;18.35;69.91
75775;BME280;64505;51.458;7.556;2023-05-10T09:56:35;99254.97;;;17.96;69.30
75775;BME280;64505;51.458;7.556;2023-05-10T09:58:38;99253.69;;;18.17;70.58
75775;BME280;64505;51.458;7.556;2023-05-10T10:00:44;99263.13;;;17.81;68.86
75775;BME280;64505;51.458;7.556;2023-05-10T10:02:53;99251.31;;;18.40;71.07
75775;BME280;64505;51.458;7.556;2023-05-10T10:04:55;99252.09;;;18.69;71.75
75775;BME280;64505;51.458;7.556;2023-05-10T10:07:04;99248.50;;;18.55;69.22
75775;BME280;64505;51.458;7.556;2023-05-10T10:09:06;99254.47;;;18.71;70.76
75775;BME280;64505;51.458;7.556;2023-05-10T10:11:08;99250.38;;;18.54;70.10
75775;BME280;64505;51.458;7.556;2023-05-10T10:13:10;99261.31;;;19.00;70.60
75775;BME280;64505;51.458;7.556;2023-05-10T10:15:11;99250.91;;;18.99;69.07
75775;BME280;64505;51.458;7.556;2023-05-10T10:17:17;99242.72;;;18.90;67.82
75775;BME280;64505;51.458;7.556;2023-05-10T10:19:19;99262.94;;;19.01;67.84
75775;BME280;64505;51.458;7.556;2023-05-10T10:21:24;99253.88;;;19.16;65.84
75775;BME280;64505;51.458;7.556;2023-05-10T10:23:27;99242.31;;;19.21;67.08
75775;BME280;64505;51.458;7.556;2023-05-10T10:25:28;99249.66;;;18.91;67.21
75775;BME280;64505;51.458;7.556;2023-05-10T10:30:09;99254.41;;;19.55;67.25
75775;BME280;64505;51.458;7.556;2023-05-10T10:34:38;99262.31;;;18.86;65.37
75775;BME280;64505;51.458;7.556;2023-05-10T10:36:44;99259.16;;;19.02;66.81
75775;BME280;64505;51.458;7.556;2023-05-10T10:40:47;99253.88;;;19.35;66.11
75775;BME280;64505;51.458;7.556;2023-05-10T10:42:49;99259.94;;;19.03;66.23
75775;BME280;64505;51.458;7.556;2023-05-10T10:45:11;99267.47;;;18.82;67.63
75775;BME280;64505;51.458;7.556;2023-05-10T10:49:26;99265.75;;;18.44;66.69
75775;BME280;64505;51.458;7.556;2023-05-10T10:51:28;99264.59;;;18.50;66.16
75775;BME280;64505;51.458;7.556;2023-05-10T10:53:30;99255.63;;;18.64;67.03
75775;BME280;64505;51.458;7.556;2023-05-10T10:55:33;99258.38;;;19.02;67.60
75775;BME280;64505;51.458;7.556;2023-05-10T10:59:43;99263.19;;;18.81;67.11
75775;BME280;64505;51.458;7.556;2023-05-10T11:01:51;99267.19;;;18.60;68.11
75775;BME280;64505;51.458;7.556;2023-05-10T11:06:04;99272.88;;;18.53;66.12
75775;BME280;64505;51.458;7.556;2023-05-10T11:10:23;99275.72;;;18.86;65.80
75775;BME280;64505;51.458;7.556;2023-05-10T11:12:25;99270.44;;;18.57;66.08
75775;BME280;64505;51.458;7.556;2023-05-10T11:14:27;99276.03;;;18.84;67.65
75775;BME280;64505;51.458;7.556;2023-05-10T11:16:41;99284.22;;;18.69;67.67
75775;BME280;64505;51.458;7.556;2023-05-10T11:19:06;99287.31;;;18.29;67.10
75775;BME280;64505;51.458;7.556;2023-05-10T11:21:09;99289.06;;;18.38;67.68
75775;BME280;64505;51.458;7.556;2023-05-10T11:23:13;99291.97;;;18.18;69.46